Time;durP1;ratioP1;P1;durP2;ratioP2;P2;SDS_P1;SDS_P2;PMS_P1;PMS_P2;Temp;Humidity;BMP_temperature;BMP_pressure;BME280_temperature;BME280_humidity;BME280_pressure;Samples;Min_cycle;Max_cycle;Signal;HPM_P1;HPM_P2
2022/09/17 00:02:38;;;;;;;2.03;1.03;;;;;;;13.82;56.31;97360.78;8414502;28;20533;-79
2022/09/17 00:06:41;;;;;;;2.60;1.00;;;;;;;13.76;56.50;97363.75;8414260;28;20234;-78
2022/09/17 00:10:44;;;;;;;2.97;1.20;;;;;;;13.86;55.83;97362.22;8414190;28;20288;-79
2022/09/17 00:14:47;;;;;;;4.07;1.17;;;;;;;13.88;56.16;97373.38;8413928;28;20518;-78
2022/09/17 00:18:51;;;;;;;2.63;1.10;;;;;;;13.83;56.43;97379.81;8414358;28;20231;-79
2022/09/17 00:22:54;;;;;;;3.57;1.20;;;;;;;13.77;56.42;97377.63;8413966;28;20303;-79
2022/09/17 00:26:57;;;;;;;3.03;1.10;;;;;;;13.85;56.71;97373.56;8413884;28;20253;-77
2022/09/17 00:31:00;;;;;;;4.47;1.30;;;;;;;13.94;56.21;97368.69;8413701;28;20265;-76
2022/09/17 00:35:05;;;;;;;3.00;1.33;;;;;;;13.89;56.58;97368.97;8413973;28;20300;-77
2022/09/17 00:39:09;;;;;;;2.60;1.50;;;;;;;13.94;56.55;97371.28;8413405;28;20238;-78
2022/09/17 00:43:12;;;;;;;3.37;1.43;;;;;;;13.96;56.08;97362.44;8413779;28;20529;-77
2022/09/17 00:47:22;;;;;;;4.83;2.00;;;;;;;13.77;56.59;97364.63;8413440;28;20230;-78
2022/09/17 00:51:32;;;;;;;9.80;2.17;;;;;;;13.72;56.20;97361.47;8413701;28;20468;-78
2022/09/17 00:55:37;;;;;;;7.30;2.40;;;;;;;13.69;56.75;97362.53;8413502;28;20238;-78
2022/09/17 00:59:39;;;;;;;7.73;2.43;;;;;;;13.79;56.69;97363.56;8413390;28;20234;-78
2022/09/17 01:03:42;;;;;;;5.47;2.40;;;;;;;13.74;56.50;97365.63;8413311;28;20448;-78
2022/09/17 01:07:57;;;;;;;3.73;2.33;;;;;;;13.66;56.27;97376.56;8413325;28;20243;-80
2022/09/17 01:12:13;;;;;;;4.10;2.07;;;;;;;13.74;56.49;97383.03;8412777;28;20234;-78
2022/09/17 01:16:20;;;;;;;6.07;2.60;;;;;;;13.63;56.62;97376.78;8413156;28;20414;-79
2022/09/17 01:20:51;;;;;;;4.07;2.40;;;;;;;13.62;56.50;97380.28;8412914;28;20294;-79
2022/09/17 01:25:13;;;;;;;5.70;2.40;;;;;;;13.71;56.50;97385.81;8412773;28;20230;-78
2022/09/17 01:29:28;;;;;;;7.90;2.63;;;;;;;13.60;56.64;97386.53;8413099;28;20237;-78
2022/09/17 01:33:39;;;;;;;4.30;2.20;;;;;;;13.40;56.89;97396.50;8412915;28;20238;-79
2022/09/17 01:37:47;;;;;;;6.27;2.40;;;;;;;13.23;57.49;97389.75;8412949;28;20231;-78
2022/09/17 01:41:54;;;;;;;4.90;2.20;;;;;;;13.37;57.30;97388.88;8412174;28;20250;-78
2022/09/17 01:46:00;;;;;;;3.90;2.07;;;;;;;13.42;57.15;97393.75;8412447;28;20284;-77
2022/09/17 01:50:07;;;;;;;5.93;2.23;;;;;;;13.34;56.96;97396.88;8415959;28;20227;-79
2022/09/17 01:54:15;;;;;;;6.07;2.23;;;;;;;13.19;57.62;97390.03;8418550;28;20410;-79
2022/09/17 01:58:20;;;;;;;4.73;2.10;;;;;;;13.40;57.28;97398.25;8418448;28;20227;-80
2022/09/17 02:02:27;;;;;;;4.67;2.30;;;;;;;13.51;56.71;97402.75;8418523;28;20227;-80
2022/09/17 02:06:34;;;;;;;6.07;2.50;;;;;;;13.40;57.11;97406.03;8417981;28;20590;-80
2022/09/17 02:10:41;;;;;;;5.77;2.33;;;;;;;13.37;57.32;97414.88;8418266;28;20231;-79
2022/09/17 02:14:48;;;;;;;5.00;2.03;;;;;;;13.64;57.03;97406.22;8417956;28;20231;-78
2022/09/17 02:18:56;;;;;;;3.87;1.97;;;;;;;13.44;57.37;97410.09;8417618;28;20288;-80
2022/09/17 02:23:05;;;;;;;6.93;1.90;;;;;;;13.50;57.04;97407.13;8417694;28;20234;-80
2022/09/17 02:27:12;;;;;;;5.20;2.10;;;;;;;13.33;57.56;97399.56;8417924;28;20536;-80
2022/09/17 02:31:14;;;;;;;6.80;2.20;;;;;;;13.32;57.44;97393.53;8417544;28;20413;-79
2022/09/17 02:35:18;;;;;;;6.17;2.20;;;;;;;13.48;57.44;97396.00;8417527;28;20237;-80
2022/09/17 02:39:22;;;;;;;4.97;2.07;;;;;;;13.55;56.98;97386.84;8417373;28;20235;-80
2022/09/17 02:43:30;;;;;;;6.03;2.40;;;;;;;13.58;56.42;97399.66;8417262;28;20451;-79
2022/09/17 02:48:00;;;;;;;7.43;2.70;;;;;;;13.42;56.42;97379.03;8416961;28;20258;-78
2022/09/17 02:52:13;;;;;;;12.27;2.50;;;;;;;13.35;56.95;97371.72;8416759;28;20218;-78
2022/09/17 02:56:21;;;;;;;8.03;2.43;;;;;;;13.54;56.99;97366.97;8416653;28;20243;-79
2022/09/17 03:00:25;;;;;;;6.67;2.63;;;;;;;13.54;56.63;97366.97;8416516;28;20231;-80
2022/09/17 03:04:29;;;;;;;6.67;2.30;;;;;;;13.54;56.44;97372.16;8416488;28;20298;-80
2022/09/17 03:08:35;;;;;;;8.73;2.20;;;;;;;13.57;56.81;97361.53;8416215;28;20280;-80
2022/09/17 03:12:40;;;;;;;8.50;2.47;;;;;;;13.45;57.01;97360.59;8416096;28;20231;-79
2022/09/17 03:16:42;;;;;;;7.60;2.20;;;;;;;13.68;56.70;97356.47;8415887;28;20234;-79
2022/09/17 03:20:46;;;;;;;9.00;2.67;;;;;;;13.52;56.98;97347.19;8416169;28;20244;-79
2022/09/17 03:24:49;;;;;;;6.00;2.10;;;;;;;13.66;56.49;97341.91;8415310;28;20429;-79
2022/09/17 03:28:53;;;;;;;5.30;2.30;;;;;;;13.37;57.06;97346.44;8415612;28;20235;-79
2022/09/17 03:32:55;;;;;;;8.07;2.10;;;;;;;13.49;57.10;97345.63;8415492;28;20226;-81
2022/09/17 03:36:58;;;;;;;8.40;2.13;;;;;;;13.56;56.88;97348.66;8415361;28;20460;-80
2022/09/17 03:41:02;;;;;;;6.43;2.30;;;;;;;13.31;57.32;97345.06;8415182;28;20247;-80
2022/09/17 03:45:08;;;;;;;7.10;1.97;;;;;;;13.35;57.44;97350.91;8415104;28;20317;-80
2022/09/17 03:49:10;;;;;;;4.70;2.00;;;;;;;13.34;56.98;97346.63;8415027;28;20295;-80
2022/09/17 03:53:13;;;;;;;6.03;1.93;;;;;;;13.40;56.92;97354.88;8415119;28;20252;-80
2022/09/17 03:57:16;;;;;;;6.93;2.00;;;;;;;13.42;56.73;97357.34;8414984;28;20509;-80
2022/09/17 04:01:20;;;;;;;7.27;1.90;;;;;;;13.45;56.85;97355.38;8414725;28;20242;-79
2022/09/17 04:05:23;;;;;;;7.57;2.10;;;;;;;13.33;57.40;97361.41;8414509;28;20230;-80
2022/09/17 04:09:26;;;;;;;6.57;1.87;;;;;;;13.41;57.29;97359.13;8414489;28;20230;-80
2022/09/17 04:13:28;;;;;;;7.83;2.17;;;;;;;13.27;57.70;97359.19;8413771;28;20253;-80
2022/09/17 04:17:33;;;;;;;4.13;1.60;;;;;;;13.32;57.25;97349.31;8414130;28;20530;-80
2022/09/17 04:21:35;;;;;;;5.83;1.83;;;;;;;13.17;58.20;97352.88;8414215;28;20234;-80
2022/09/17 04:25:38;;;;;;;8.33;2.07;;;;;;;13.19;57.99;97346.66;8414062;28;20234;-80
2022/09/17 04:29:41;;;;;;;7.37;1.90;;;;;;;13.33;57.32;97345.81;8414065;28;20252;-80
2022/09/17 04:33:46;;;;;;;10.13;2.20;;;;;;;13.27;57.70;97344.41;8413797;28;20241;-79
2022/09/17 04:37:52;;;;;;;10.57;2.20;;;;;;;13.41;57.29;97350.50;8413573;28;20231;-79
2022/09/17 04:41:55;;;;;;;16.10;2.60;;;;;;;13.23;57.70;97350.75;8413791;28;20254;-80
2022/09/17 04:45:58;;;;;;;7.87;2.37;;;;;;;13.15;58.24;97337.38;8413722;28;20234;-79
2022/09/17 04:50:02;;;;;;;8.63;2.17;;;;;;;13.07;57.78;97352.66;8413423;28;20234;-79
2022/09/17 04:54:05;;;;;;;6.40;1.87;;;;;;;13.09;58.04;97351.63;8413383;28;20238;-79
2022/09/17 04:58:08;;;;;;;7.50;2.10;;;;;;;13.27;58.06;97357.41;8413496;28;20242;-81
2022/09/17 05:02:10;;;;;;;5.67;1.70;;;;;;;13.16;57.90;97353.84;8413495;28;20227;-80
2022/09/17 05:06:15;;;;;;;5.60;2.00;;;;;;;13.37;58.10;97360.28;8412842;28;20238;-80
2022/09/17 05:10:19;;;;;;;8.37;2.17;;;;;;;13.25;59.29;97367.06;8413227;28;20227;-80
2022/09/17 05:14:22;;;;;;;6.87;2.00;;;;;;;13.37;59.28;97375.88;8413219;28;20284;-80
2022/09/17 05:18:25;;;;;;;5.93;2.00;;;;;;;13.18;59.82;97373.59;8412455;28;20258;-80
2022/09/17 05:22:30;;;;;;;6.67;1.70;;;;;;;13.25;60.25;97387.88;8413268;28;20238;-80
2022/09/17 05:26:32;;;;;;;6.87;1.83;;;;;;;13.26;60.29;97392.13;8419107;28;20549;-80
2022/09/17 05:30:35;;;;;;;6.97;1.53;;;;;;;12.98;61.25;97400.84;8418972;28;20250;-79
2022/09/17 05:34:38;;;;;;;7.90;1.70;;;;;;;12.93;60.82;97402.91;8418534;28;20348;-79
2022/09/17 05:38:42;;;;;;;7.00;1.87;;;;;;;12.90;61.02;97396.13;8418595;28;20233;-79
2022/09/17 05:42:45;;;;;;;4.03;1.27;;;;;;;12.84;61.53;97388.72;8418522;28;20230;-79
2022/09/17 05:46:48;;;;;;;3.03;1.00;;;;;;;12.98;61.90;97392.22;8417918;28;20234;-79
2022/09/17 05:50:50;;;;;;;4.47;1.37;;;;;;;12.94;61.18;97382.97;8418115;28;20235;-79
2022/09/17 05:54:55;;;;;;;4.27;1.30;;;;;;;13.05;60.80;97375.31;8418119;28;20456;-79
2022/09/17 05:58:58;;;;;;;5.87;1.60;;;;;;;13.12;61.16;97371.41;8417796;28;20226;-79
2022/09/17 06:03:01;;;;;;;4.13;1.13;;;;;;;13.06;61.64;97382.16;8417799;28;20254;-78
2022/09/17 06:07:04;;;;;;;4.93;1.40;;;;;;;13.13;61.86;97374.81;8417728;28;20541;-79
2022/09/17 06:11:09;;;;;;;2.47;1.10;;;;;;;13.10;61.23;97370.66;8417626;28;20239;-79
2022/09/17 06:15:13;;;;;;;3.17;1.27;;;;;;;12.83;62.85;97370.63;8417376;28;20246;-79
2022/09/17 06:19:16;;;;;;;4.27;1.60;;;;;;;12.75;63.53;97378.91;8417209;28;20276;-80
2022/09/17 06:23:18;;;;;;;3.20;1.30;;;;;;;12.90;62.94;97372.75;8417369;28;20235;-79
2022/09/17 06:27:23;;;;;;;4.23;1.37;;;;;;;12.82;63.48;97389.75;8417287;28;20231;-79
2022/09/17 06:31:26;;;;;;;6.13;1.50;;;;;;;12.89;63.80;97393.66;8416965;28;20238;-79
2022/09/17 06:35:29;;;;;;;3.13;1.30;;;;;;;12.82;63.68;97402.75;8415972;28;20288;-79
2022/09/17 06:39:31;;;;;;;4.33;1.43;;;;;;;12.96;63.58;97404.47;8416544;28;20246;-79
2022/09/17 06:43:35;;;;;;;3.13;1.30;;;;;;;13.06;63.65;97402.97;8416399;28;20242;-78
2022/09/17 06:47:38;;;;;;;5.43;1.60;;;;;;;12.80;64.73;97404.63;8416148;28;20429;-77
2022/09/17 06:51:41;;;;;;;3.23;1.40;;;;;;;13.08;63.84;97407.16;8415976;28;20276;-77
2022/09/17 06:55:44;;;;;;;2.47;1.33;;;;;;;13.10;63.70;97423.47;8416025;28;20230;-77
2022/09/17 06:59:48;;;;;;;3.40;1.30;;;;;;;13.26;63.79;97419.91;8416258;28;20234;-77
2022/09/17 07:03:52;;;;;;;3.30;1.40;;;;;;;12.74;64.41;97421.41;8415401;28;20325;-77
2022/09/17 07:07:55;;;;;;;2.30;1.37;;;;;;;12.97;64.64;97432.97;8415622;28;20425;-78
2022/09/17 07:11:57;;;;;;;3.53;1.70;;;;;;;12.68;64.96;97440.00;8415338;28;20226;-79
2022/09/17 07:16:03;;;;;;;3.13;1.37;;;;;;;12.73;64.10;97444.88;8415309;28;20352;-78
2022/09/17 07:20:07;;;;;;;5.00;1.70;;;;;;;12.68;65.20;97442.59;8415321;28;20407;-78
2022/09/17 07:24:10;;;;;;;3.57;1.50;;;;;;;12.95;65.22;97439.22;8415306;28;20252;-78
2022/09/17 07:28:13;;;;;;;4.13;1.43;;;;;;;13.03;64.94;97442.16;8415108;28;20222;-78
2022/09/17 07:32:17;;;;;;;8.20;1.87;;;;;;;12.82;65.22;97457.31;8414945;28;20227;-77
2022/09/17 07:36:19;;;;;;;6.80;1.90;;;;;;;13.05;64.81;97446.31;8414702;28;20239;-76
2022/09/17 07:40:22;;;;;;;4.87;2.10;;;;;;;12.94;65.06;97466.13;8414694;28;20403;-77
2022/09/17 07:44:26;;;;;;;7.53;2.23;;;;;;;12.94;65.28;97466.13;8414578;28;20544;-77
2022/09/17 07:48:32;;;;;;;4.23;2.23;;;;;;;13.02;64.28;97474.28;8414012;28;20235;-78
2022/09/17 07:52:35;;;;;;;5.37;2.10;;;;;;;12.96;64.08;97474.66;8414573;28;20230;-78
2022/09/17 07:56:37;;;;;;;8.47;2.60;;;;;;;13.18;63.80;97472.41;8414246;28;20234;-77
2022/09/17 08:00:40;;;;;;;10.07;2.70;;;;;;;12.95;64.87;97486.81;8413852;28;20276;-77
2022/09/17 08:04:44;;;;;;;5.40;2.27;;;;;;;13.10;64.30;97490.25;8413930;28;20223;-77
2022/09/17 08:08:47;;;;;;;8.50;2.83;;;;;;;13.21;64.06;97497.34;8413193;28;20420;-76
2022/09/17 08:12:51;;;;;;;11.90;2.53;;;;;;;13.21;63.96;97502.56;8413534;28;20249;-77
2022/09/17 08:16:53;;;;;;;9.37;4.20;;;;;;;13.34;63.81;97500.06;8413390;28;20239;-79
2022/09/17 08:20:58;;;;;;;6.30;2.50;;;;;;;13.31;63.33;97503.69;8413384;28;20230;-78
2022/09/17 08:25:03;;;;;;;12.40;4.63;;;;;;;13.34;64.11;97495.69;8412967;28;20471;-78
2022/09/17 08:29:06;;;;;;;12.77;6.13;;;;;;;13.58;63.24;97503.72;8413077;28;20227;-78
2022/09/17 08:33:09;;;;;;;15.57;4.90;;;;;;;13.57;63.23;97516.81;8412860;28;20229;-74
2022/09/17 08:37:13;;;;;;;10.07;4.90;;;;;;;13.50;63.50;97518.97;8412822;28;20248;-79
2022/09/17 08:41:23;;;;;;;7.47;2.43;;;;;;;13.52;62.93;97516.25;8412879;28;20235;-78
2022/09/17 08:45:26;;;;;;;8.17;2.60;;;;;;;13.73;62.75;97519.25;8412875;28;20312;-76
2022/09/17 08:49:33;;;;;;;10.80;2.40;;;;;;;14.06;61.88;97530.09;8412959;28;20226;-77
2022/09/17 08:53:43;;;;;;;10.90;2.63;;;;;;;14.12;61.78;97520.22;8413052;28;20234;-76
2022/09/17 08:57:50;;;;;;;7.83;2.80;;;;;;;14.34;59.91;97520.47;8412080;28;20239;-78
2022/09/17 09:01:59;;;;;;;7.80;2.60;;;;;;;14.30;60.85;97524.22;8412234;28;20230;-78
2022/09/17 09:06:02;;;;;;;7.87;3.07;;;;;;;14.07;60.95;97536.97;8412334;28;20303;-78
2022/09/17 09:10:17;;;;;;;9.03;3.23;;;;;;;14.09;61.05;97529.06;8412203;28;20227;-78
2022/09/17 09:14:23;;;;;;;7.20;2.83;;;;;;;14.43;60.45;97532.03;8412350;28;20231;-76
2022/09/17 09:18:29;;;;;;;8.67;2.70;;;;;;;14.52;60.73;97538.41;8412193;28;20238;-75
2022/09/17 09:22:47;;;;;;;12.90;3.60;;;;;;;14.28;59.69;97529.53;8412734;28;20230;-76
2022/09/17 09:27:01;;;;;;;10.33;2.60;;;;;;;15.26;67.58;97536.81;8412215;28;20226;-75
2022/09/17 09:31:16;;;;;;;11.93;2.87;;;;;;;14.64;59.85;97537.59;8412224;28;20230;-75
2022/09/17 09:35:21;;;;;;;10.53;3.27;;;;;;;14.59;59.73;97531.88;8412134;28;20234;-76
2022/09/17 09:39:27;;;;;;;11.07;3.30;;;;;;;15.32;58.44;97540.78;8412093;28;20231;-76
2022/09/17 09:43:40;;;;;;;10.20;2.87;;;;;;;15.79;56.96;97536.59;8411826;28;20237;-75
2022/09/17 09:48:06;;;;;;;10.17;2.60;;;;;;;15.28;57.77;97536.72;8411329;28;20250;-76
2022/09/17 09:52:19;;;;;;;8.30;2.60;;;;;;;16.43;55.25;97538.88;8411973;28;20306;-74
2022/09/17 09:56:32;;;;;;;11.63;2.87;;;;;;;16.87;54.13;97529.44;8411590;28;20235;-76
2022/09/17 10:00:38;;;;;;;10.47;2.90;;;;;;;17.77;50.41;97529.31;8412131;28;20239;-76
2022/09/17 10:04:41;;;;;;;7.03;2.50;;;;;;;17.22;52.88;97543.34;8411835;28;20234;-78
2022/09/17 10:09:12;;;;;;;12.53;3.10;;;;;;;17.03;52.12;97530.88;8412160;28;20289;-78
2022/09/17 10:13:16;;;;;;;10.37;2.93;;;;;;;17.00;52.11;97535.41;8417275;28;20495;-77
2022/09/17 10:17:22;;;;;;;11.13;3.00;;;;;;;17.87;50.75;97529.44;8417415;28;20237;-75
2022/09/17 10:21:31;;;;;;;10.90;3.47;;;;;;;18.02;47.47;97519.50;8417427;28;20234;-75
2022/09/17 10:25:34;;;;;;;11.13;3.03;;;;;;;18.25;46.08;97522.03;8417111;28;20234;-75
2022/09/17 10:29:42;;;;;;;9.67;3.10;;;;;;;17.71;48.80;97524.59;8417076;28;20322;-75
2022/09/17 10:33:56;;;;;;;0.73;0.70;;;;;;;16.96;50.66;97520.03;8416687;28;20265;-75
2022/09/17 10:37:59;;;;;;;0.30;0.30;;;;;;;18.19;48.21;97506.81;8416165;28;20518;-75
2022/09/17 10:42:04;;;;;;;0.20;0.20;;;;;;;18.72;45.03;97514.59;8416357;28;20245;-75
2022/09/17 10:46:09;;;;;;;0.10;0.10;;;;;;;19.70;44.39;97500.00;8416188;28;20259;-75
2022/09/17 10:50:17;;;;;;;0.10;0.10;;;;;;;18.84;47.09;97524.06;8416842;28;20537;-75
2022/09/17 10:54:52;;;;;;;0.10;0.10;;;;;;;18.22;47.50;97514.41;8416631;28;20540;-76
2022/09/17 10:59:00;;;;;;;0.10;0.10;;;;;;;18.51;47.64;97519.88;8399322;28;20238;-75
2022/09/17 11:03:23;;;;;;;0.10;0.10;;;;;;;19.79;47.29;97498.41;8416038;28;20456;-76
2022/09/17 11:07:43;;;;;;;0.20;0.10;;;;;;;19.79;46.87;97499.22;8415787;28;20239;-77
2022/09/17 11:11:55;;;;;;;0.70;0.10;;;;;;;19.10;46.10;97485.09;8416020;28;20380;-77
2022/09/17 11:16:15;;;;;;;0.07;0.07;;;;;;;20.18;43.19;97490.50;8415673;28;20511;-78
2022/09/17 11:20:28;;;;;;;0.13;0.00;;;;;;;19.70;44.39;97490.34;8416222;28;20241;-78
2022/09/17 11:24:56;;;;;;;0.00;0.00;;;;;;;19.51;44.49;97478.03;8415945;28;20230;-79
2022/09/17 11:29:05;;;;;;;0.00;0.00;;;;;;;19.93;41.43;97479.59;8415166;28;20235;-79
2022/09/17 11:33:20;;;;;;;0.20;0.10;;;;;;;20.10;42.78;97472.78;8415321;28;20247;-80
2022/09/17 11:37:25;;;;;;;0.00;0.00;;;;;;;19.46;43.33;97463.66;8415639;28;20237;-79
2022/09/17 11:41:32;;;;;;;0.53;0.20;;;;;;;19.11;43.06;97464.94;8415397;28;20228;-79
2022/09/17 11:45:38;;;;;;;0.00;0.00;;;;;;;18.04;43.12;97475.66;8414969;28;20667;-78
2022/09/17 11:49:45;;;;;;;0.00;0.00;;;;;;;17.95;45.87;97493.00;8415053;28;20236;-79
2022/09/17 11:53:51;;;;;;;0.10;0.10;;;;;;;18.01;47.47;97480.34;8414351;28;20227;-76
2022/09/17 11:58:00;;;;;;;0.10;0.10;;;;;;;18.08;48.36;97486.72;8414450;28;20233;-77
2022/09/17 12:02:06;;;;;;;0.20;0.13;;;;;;;18.66;47.97;97475.78;8414378;28;20234;-77
2022/09/17 12:06:11;;;;;;;0.10;0.10;;;;;;;18.63;48.87;97473.41;8414510;28;20291;-77
2022/09/17 12:10:38;;;;;;;0.10;0.10;;;;;;;18.53;49.44;97476.00;8414247;28;20234;-77
2022/09/17 12:14:48;;;;;;;0.10;0.10;;;;;;;18.71;49.10;97474.41;8414303;28;20235;-80
2022/09/17 12:18:57;;;;;;;0.00;0.00;;;;;;;19.62;47.31;97469.16;8413571;28;20243;-78
2022/09/17 12:23:03;;;;;;;0.10;0.10;;;;;;;19.82;46.95;97466.56;8414157;28;20552;-78
2022/09/17 12:27:16;;;;;;;0.07;0.07;;;;;;;19.83;47.25;97463.00;8414107;28;20277;-78
2022/09/17 12:31:24;;;;;;;0.10;0.10;;;;;;;19.09;49.26;97451.94;8413854;28;20235;-81
2022/09/17 12:35:42;;;;;;;0.00;0.00;;;;;;;18.48;48.98;97449.31;8413566;28;20231;-81
2022/09/17 12:40:13;;;;;;;0.00;0.00;;;;;;;18.91;47.83;97443.06;8413391;28;20309;-81
2022/09/17 12:44:26;;;;;;;0.10;0.10;;;;;;;19.41;46.21;97444.84;8413490;28;20236;-81
2022/09/17 12:49:02;;;;;;;0.00;0.00;;;;;;;19.05;47.06;97432.19;8413320;28;20250;-78
2022/09/17 12:53:15;;;;;;;0.10;0.10;;;;;;;18.89;43.80;97439.75;8413237;28;20248;-77
2022/09/17 12:57:28;;;;;;;0.00;0.00;;;;;;;18.52;44.61;97432.38;8413473;28;20249;-77
2022/09/17 13:01:36;;;;;;;0.10;0.00;;;;;;;19.28;44.49;97443.28;8413400;28;20230;-76
2022/09/17 13:05:50;;;;;;;0.00;0.00;;;;;;;18.73;44.60;97438.41;8413522;28;20296;-76
2022/09/17 13:10:13;;;;;;;0.00;0.00;;;;;;;18.20;46.39;97456.91;8413003;28;20507;-78
2022/09/17 13:14:20;;;;;;;0.00;0.00;;;;;;;15.17;52.81;97514.00;8399693;28;20231;-76
2022/09/17 13:18:29;;;;;;;0.10;0.10;;;;;;;16.27;53.92;97523.47;8413376;28;20239;-78
2022/09/17 13:22:33;;;;;;;0.00;0.00;;;;;;;15.81;52.08;97508.59;8413100;28;20231;-76
2022/09/17 13:26:38;;;;;;;0.00;0.00;;;;;;;15.25;52.91;97490.84;8412955;28;20246;-75
2022/09/17 13:30:58;;;;;;;0.00;0.00;;;;;;;15.35;54.01;97464.91;8413218;28;20242;-73
2022/09/17 13:35:44;;;;;;;0.00;0.00;;;;;;;15.91;52.94;97467.78;8412687;28;20432;-75
2022/09/17 13:39:49;;;;;;;0.00;0.00;;;;;;;16.10;53.99;97472.47;8411991;28;20538;-71
2022/09/17 13:43:54;;;;;;;0.00;0.00;;;;;;;16.21;52.79;97466.47;8412714;28;20230;-75
2022/09/17 13:48:00;;;;;;;0.10;0.10;;;;;;;16.95;52.62;97464.28;8418959;28;20451;-76
2022/09/17 13:52:03;;;;;;;0.10;0.10;;;;;;;17.60;53.27;97446.06;8418750;28;20498;-76
2022/09/17 13:56:31;;;;;;;0.00;0.00;;;;;;;18.10;51.15;97450.75;8418757;28;20321;-76
2022/09/17 14:00:51;;;;;;;0.00;0.00;;;;;;;18.33;50.09;97447.06;8418217;28;20237;-77
2022/09/17 14:04:55;;;;;;;0.00;0.00;;;;;;;18.73;51.06;97446.28;8417924;28;20235;-76
2022/09/17 14:09:02;;;;;;;0.00;0.00;;;;;;;18.93;51.79;97446.38;8418257;28;20534;-77
2022/09/17 14:13:26;;;;;;;0.10;0.10;;;;;;;18.70;50.04;97443.09;8418106;28;20231;-77
2022/09/17 14:17:49;;;;;;;0.00;0.00;;;;;;;19.04;49.46;97435.78;8417942;28;20239;-77
2022/09/17 14:22:03;;;;;;;0.10;0.10;;;;;;;18.60;49.91;97435.19;8417477;28;20226;-76
2022/09/17 14:26:09;;;;;;;0.00;0.00;;;;;;;18.27;48.19;97421.34;8417895;28;20546;-77
2022/09/17 14:30:16;;;;;;;0.00;0.00;;;;;;;18.97;48.73;97424.16;8417709;28;20240;-76
2022/09/17 14:34:20;;;;;;;0.00;0.00;;;;;;;19.23;49.39;97427.13;8417747;28;20290;-77
2022/09/17 14:38:25;;;;;;;0.00;0.00;;;;;;;18.60;50.63;97422.06;8417374;28;20243;-77
2022/09/17 14:42:31;;;;;;;0.00;0.00;;;;;;;18.61;49.28;97420.28;8417366;28;20256;-76
2022/09/17 14:46:38;;;;;;;0.00;0.00;;;;;;;18.50;49.97;97416.75;8417223;28;20594;-76
2022/09/17 14:50:41;;;;;;;0.00;0.00;;;;;;;18.71;51.19;97410.63;8417196;28;20244;-77
2022/09/17 14:54:44;;;;;;;0.00;0.00;;;;;;;18.74;50.31;97419.06;8416571;28;20537;-76
2022/09/17 14:58:49;;;;;;;0.00;0.00;;;;;;;18.51;50.18;97413.19;8416024;28;20509;-77
2022/09/17 15:02:58;;;;;;;0.00;0.00;;;;;;;18.45;48.78;97411.09;8416253;28;20228;-77
2022/09/17 15:07:08;;;;;;;0.00;0.00;;;;;;;18.24;49.16;97403.28;8416365;28;20248;-77
2022/09/17 15:11:12;;;;;;;0.00;0.00;;;;;;;18.38;48.83;97409.13;8416515;28;20234;-77
2022/09/17 15:15:22;;;;;;;0.00;0.00;;;;;;;18.17;47.46;97413.44;8416127;28;20426;-77
2022/09/17 15:19:32;;;;;;;0.00;0.00;;;;;;;18.19;47.09;97415.09;8415916;28;20526;-76
2022/09/17 15:23:36;;;;;;;0.00;0.00;;;;;;;17.91;45.53;97417.41;8415940;28;20638;-77
2022/09/17 15:27:40;;;;;;;0.00;0.00;;;;;;;17.53;44.68;97419.53;8415780;28;20230;-77
2022/09/17 15:31:43;;;;;;;0.00;0.00;;;;;;;17.71;45.61;97414.59;8415667;28;20429;-76
2022/09/17 15:36:00;;;;;;;0.00;0.00;;;;;;;17.61;43.96;97423.34;8415454;28;20234;-77
2022/09/17 15:40:12;;;;;;;0.00;0.00;;;;;;;17.64;44.19;97430.94;8415072;28;20230;-76
2022/09/17 15:44:22;;;;;;;0.00;0.00;;;;;;;17.66;44.83;97427.25;8415158;28;20235;-77
2022/09/17 15:48:38;;;;;;;0.00;0.00;;;;;;;17.19;44.68;97421.44;8414928;28;20235;-77
2022/09/17 15:52:42;;;;;;;0.00;0.00;;;;;;;17.18;44.35;97428.47;8414949;28;20231;-77
2022/09/17 15:56:46;;;;;;;0.00;0.00;;;;;;;16.99;44.80;97418.63;8414523;28;20309;-77
2022/09/17 16:01:25;;;;;;;0.00;0.00;;;;;;;17.04;44.55;97418.28;8414031;28;20245;-76
2022/09/17 16:05:49;;;;;;;0.00;0.00;;;;;;;16.62;44.96;97412.84;8378775;28;20242;-76
2022/09/17 16:09:59;;;;;;;0.00;0.00;;;;;;;16.49;45.74;97426.00;8413293;28;20501;-76
2022/09/17 16:14:02;;;;;;;0.00;0.00;;;;;;;16.29;46.30;97424.09;8414237;28;20284;-76
2022/09/17 16:18:05;;;;;;;0.00;0.00;;;;;;;16.34;46.78;97416.72;8414203;28;20514;-76
2022/09/17 16:22:07;;;;;;;0.00;0.00;;;;;;;16.19;47.60;97423.97;8414128;28;20506;-76
2022/09/17 16:26:14;;;;;;;0.00;0.00;;;;;;;16.09;46.73;97434.28;8414117;28;20230;-76
2022/09/17 16:30:18;;;;;;;0.00;0.00;;;;;;;15.97;48.53;97443.88;8414128;28;20231;-76
2022/09/17 16:34:21;;;;;;;0.00;0.00;;;;;;;15.88;52.41;97465.44;8413933;28;20234;-76
2022/09/17 16:38:24;;;;;;;0.00;0.00;;;;;;;15.35;53.23;97470.13;8413655;28;20235;-77
2022/09/17 16:42:31;;;;;;;0.00;0.00;;;;;;;15.28;54.50;97481.94;8413576;28;20511;-76
2022/09/17 16:46:34;;;;;;;0.00;0.00;;;;;;;15.18;54.58;97487.81;8413436;28;20241;-76
2022/09/17 16:50:40;;;;;;;0.00;0.00;;;;;;;15.04;53.78;97483.56;8413163;28;20245;-76
2022/09/17 16:54:42;;;;;;;0.00;0.00;;;;;;;15.19;53.70;97471.22;8413149;28;20422;-76
2022/09/17 16:58:47;;;;;;;0.00;0.00;;;;;;;15.27;54.11;97480.25;8413071;28;20296;-76
2022/09/17 17:02:53;;;;;;;0.03;0.03;;;;;;;15.10;54.89;97481.44;8412516;28;20296;-76
2022/09/17 17:06:56;;;;;;;0.00;0.00;;;;;;;15.07;54.79;97463.44;8412772;28;20240;-76
2022/09/17 17:10:59;;;;;;;0.00;0.00;;;;;;;15.09;54.75;97479.81;8413238;28;20575;-76
2022/09/17 17:15:04;;;;;;;0.00;0.00;;;;;;;14.99;54.83;97490.88;8413044;28;20234;-76
2022/09/17 17:19:07;;;;;;;0.00;0.00;;;;;;;14.95;55.02;97492.03;8415024;28;20238;-76
2022/09/17 17:23:11;;;;;;;0.00;0.00;;;;;;;14.88;55.37;97505.59;8419526;28;20242;-76
2022/09/17 17:27:14;;;;;;;0.10;0.10;;;;;;;14.87;55.51;97510.00;8419533;28;20227;-76
2022/09/17 17:31:18;;;;;;;0.00;0.00;;;;;;;14.72;55.86;97513.66;8419492;28;20508;-76
2022/09/17 17:35:21;;;;;;;0.00;0.00;;;;;;;14.70;56.68;97508.53;8419047;28;20232;-75
2022/09/17 17:39:23;;;;;;;0.00;0.00;;;;;;;14.44;56.15;97515.47;8418471;28;20235;-78
2022/09/17 17:43:26;;;;;;;0.00;0.00;;;;;;;14.48;55.10;97514.31;8418975;28;20235;-77
2022/09/17 17:47:30;;;;;;;0.00;0.00;;;;;;;14.28;55.18;97513.91;8417678;28;20238;-73
2022/09/17 17:51:33;;;;;;;0.00;0.00;;;;;;;14.39;55.22;97517.53;8418527;28;20235;-77
2022/09/17 17:55:36;;;;;;;0.10;0.10;;;;;;;14.32;55.32;97513.69;8418572;28;20272;-77
2022/09/17 17:59:39;;;;;;;0.00;0.00;;;;;;;14.31;55.20;97519.84;8418535;28;20234;-76
2022/09/17 18:03:43;;;;;;;0.00;0.00;;;;;;;14.20;55.24;97524.00;8418222;28;20412;-76
2022/09/17 18:07:46;;;;;;;0.00;0.00;;;;;;;14.17;55.52;97525.97;8417982;28;20241;-76
2022/09/17 18:11:49;;;;;;;0.07;0.07;;;;;;;14.08;55.33;97532.59;8417967;28;20465;-76
2022/09/17 18:15:54;;;;;;;0.00;0.00;;;;;;;14.07;55.22;97529.16;8418041;28;20231;-77
2022/09/17 18:19:58;;;;;;;0.00;0.00;;;;;;;13.94;55.44;97533.50;8418038;28;20235;-77
2022/09/17 18:24:01;;;;;;;0.03;0.03;;;;;;;14.01;55.58;97536.53;8417969;28;20514;-76
2022/09/17 18:28:04;;;;;;;0.10;0.10;;;;;;;13.84;55.98;97538.47;8417595;28;20231;-76
2022/09/17 18:32:06;;;;;;;0.03;0.03;;;;;;;13.81;56.29;97533.47;8416910;28;20234;-76
2022/09/17 18:36:10;;;;;;;0.00;0.00;;;;;;;13.98;55.93;97537.56;8417608;28;20227;-76
2022/09/17 18:40:13;;;;;;;0.00;0.00;;;;;;;13.69;56.32;97544.66;8417291;28;20269;-76
2022/09/17 18:44:17;;;;;;;0.10;0.10;;;;;;;13.85;56.19;97560.13;8417313;28;20394;-76
2022/09/17 18:48:20;;;;;;;0.10;0.10;;;;;;;13.86;55.86;97564.41;8417025;28;20235;-77
2022/09/17 18:52:24;;;;;;;0.00;0.00;;;;;;;13.92;56.22;97560.56;8416910;28;20234;-77
2022/09/17 18:56:29;;;;;;;0.00;0.00;;;;;;;13.78;56.38;97558.84;8417095;28;20427;-76
2022/09/17 19:00:31;;;;;;;0.00;0.00;;;;;;;13.85;56.10;97562.72;8416676;28;20257;-76
2022/09/17 19:04:34;;;;;;;0.00;0.00;;;;;;;13.84;55.95;97569.72;8416520;28;20231;-76
2022/09/17 19:08:38;;;;;;;0.10;0.10;;;;;;;13.65;56.44;97558.78;8416419;28;20234;-76
2022/09/17 19:12:42;;;;;;;0.03;0.03;;;;;;;13.70;56.90;97561.94;8416270;28;20226;-76
2022/09/17 19:16:44;;;;;;;0.00;0.00;;;;;;;13.61;57.09;97560.75;8416173;28;20260;-76
2022/09/17 19:20:47;;;;;;;0.00;0.00;;;;;;;13.35;57.97;97566.75;8415674;28;20238;-76